sensor_id;sensor_type;location;lat;lon;timestamp;P1;durP1;ratioP1;P2;durP2;ratioP2
71202;SDS011;58929;47.490;19.090;2022-10-13T00:00:44;36.38;;;23.65;;
71202;SDS011;58929;47.490;19.090;2022-10-13T00:03:12;33.70;;;22.70;;
71202;SDS011;58929;47.490;19.090;2022-10-13T00:05:40;34.55;;;22.10;;
71202;SDS011;58929;47.490;19.090;2022-10-13T00:08:10;33.05;;;22.25;;
71202;SDS011;58929;47.490;19.090;2022-10-13T00:10:44;33.65;;;21.52;;
71202;SDS011;58929;47.490;19.090;2022-10-13T00:13:12;33.70;;;21.80;;
71202;SDS011;58929;47.490;19.090;2022-10-13T00:15:41;38.95;;;23.52;;
71202;SDS011;58929;47.490;19.090;2022-10-13T00:18:09;40.30;;;22.63;;
71202;SDS011;58929;47.490;19.090;2022-10-13T00:20:39;33.75;;;22.45;;
71202;SDS011;58929;47.490;19.090;2022-10-13T00:23:07;35.47;;;22.50;;
71202;SDS011;58929;47.490;19.090;2022-10-13T00:25:40;32.58;;;23.13;;
71202;SDS011;58929;47.490;19.090;2022-10-13T00:28:08;32.20;;;22.83;;
71202;SDS011;58929;47.490;19.090;2022-10-13T00:30:37;37.45;;;24.20;;
71202;SDS011;58929;47.490;19.090;2022-10-13T00:33:06;29.92;;;21.42;;
71202;SDS011;58929;47.490;19.090;2022-10-13T00:35:38;32.28;;;22.13;;
71202;SDS011;58929;47.490;19.090;2022-10-13T00:38:06;33.55;;;21.15;;
71202;SDS011;58929;47.490;19.090;2022-10-13T00:40:42;40.90;;;22.95;;
71202;SDS011;58929;47.490;19.090;2022-10-13T00:43:13;33.88;;;22.35;;
71202;SDS011;58929;47.490;19.090;2022-10-13T00:45:41;35.10;;;21.90;;
71202;SDS011;58929;47.490;19.090;2022-10-13T00:48:09;32.80;;;23.05;;
71202;SDS011;58929;47.490;19.090;2022-10-13T00:50:38;33.58;;;22.20;;
71202;SDS011;58929;47.490;19.090;2022-10-13T00:53:08;30.75;;;22.00;;
71202;SDS011;58929;47.490;19.090;2022-10-13T00:55:37;37.08;;;22.63;;
71202;SDS011;58929;47.490;19.090;2022-10-13T00:58:07;34.45;;;22.55;;
71202;SDS011;58929;47.490;19.090;2022-10-13T01:00:37;38.00;;;24.00;;
71202;SDS011;58929;47.490;19.090;2022-10-13T01:03:05;33.22;;;22.13;;
71202;SDS011;58929;47.490;19.090;2022-10-13T01:08:00;33.50;;;24.25;;
71202;SDS011;58929;47.490;19.090;2022-10-13T01:10:33;33.00;;;22.52;;
71202;SDS011;58929;47.490;19.090;2022-10-13T01:13:03;40.38;;;22.45;;
71202;SDS011;58929;47.490;19.090;2022-10-13T01:15:37;31.48;;;22.92;;
71202;SDS011;58929;47.490;19.090;2022-10-13T01:18:08;37.25;;;22.70;;
71202;SDS011;58929;47.490;19.090;2022-10-13T01:20:48;33.90;;;23.02;;
71202;SDS011;58929;47.490;19.090;2022-10-13T01:23:29;32.05;;;22.35;;
71202;SDS011;58929;47.490;19.090;2022-10-13T01:26:08;32.92;;;22.30;;
71202;SDS011;58929;47.490;19.090;2022-10-13T01:28:56;30.17;;;20.75;;
71202;SDS011;58929;47.490;19.090;2022-10-13T01:31:31;32.88;;;23.05;;
71202;SDS011;58929;47.490;19.090;2022-10-13T01:34:02;33.03;;;24.02;;
71202;SDS011;58929;47.490;19.090;2022-10-13T01:36:36;43.90;;;26.17;;
71202;SDS011;58929;47.490;19.090;2022-10-13T01:39:06;36.22;;;24.38;;
71202;SDS011;58929;47.490;19.090;2022-10-13T01:41:36;35.75;;;24.38;;
71202;SDS011;58929;47.490;19.090;2022-10-13T01:44:07;34.95;;;23.83;;
71202;SDS011;58929;47.490;19.090;2022-10-13T01:46:41;35.17;;;24.92;;
71202;SDS011;58929;47.490;19.090;2022-10-13T01:49:11;36.22;;;25.42;;
71202;SDS011;58929;47.490;19.090;2022-10-13T01:51:40;36.83;;;23.42;;
71202;SDS011;58929;47.490;19.090;2022-10-13T01:54:08;36.83;;;25.33;;
71202;SDS011;58929;47.490;19.090;2022-10-13T01:56:36;30.00;;;22.85;;
71202;SDS011;58929;47.490;19.090;2022-10-13T01:59:05;37.53;;;22.75;;
71202;SDS011;58929;47.490;19.090;2022-10-13T02:01:38;29.38;;;22.15;;
71202;SDS011;58929;47.490;19.090;2022-10-13T02:04:18;32.30;;;23.63;;
71202;SDS011;58929;47.490;19.090;2022-10-13T02:06:50;31.48;;;22.27;;
71202;SDS011;58929;47.490;19.090;2022-10-13T02:09:20;33.67;;;22.70;;
71202;SDS011;58929;47.490;19.090;2022-10-13T02:11:50;36.00;;;23.38;;
71202;SDS011;58929;47.490;19.090;2022-10-13T02:14:22;41.65;;;23.63;;
71202;SDS011;58929;47.490;19.090;2022-10-13T02:16:52;32.63;;;23.48;;
71202;SDS011;58929;47.490;19.090;2022-10-13T02:19:22;39.05;;;22.90;;
71202;SDS011;58929;47.490;19.090;2022-10-13T02:21:50;36.45;;;23.65;;
71202;SDS011;58929;47.490;19.090;2022-10-13T02:24:19;36.50;;;23.33;;
71202;SDS011;58929;47.490;19.090;2022-10-13T02:26:47;32.17;;;23.13;;
71202;SDS011;58929;47.490;19.090;2022-10-13T02:29:17;33.97;;;22.63;;
71202;SDS011;58929;47.490;19.090;2022-10-13T02:31:45;36.45;;;23.80;;
71202;SDS011;58929;47.490;19.090;2022-10-13T02:34:13;35.47;;;23.27;;
71202;SDS011;58929;47.490;19.090;2022-10-13T02:36:46;33.03;;;23.13;;
71202;SDS011;58929;47.490;19.090;2022-10-13T02:39:14;34.17;;;22.60;;
71202;SDS011;58929;47.490;19.090;2022-10-13T02:41:43;38.53;;;23.52;;
71202;SDS011;58929;47.490;19.090;2022-10-13T02:44:11;44.90;;;24.23;;
71202;SDS011;58929;47.490;19.090;2022-10-13T02:46:39;38.95;;;24.75;;
71202;SDS011;58929;47.490;19.090;2022-10-13T02:49:08;34.20;;;24.38;;
71202;SDS011;58929;47.490;19.090;2022-10-13T02:51:36;36.13;;;23.55;;
71202;SDS011;58929;47.490;19.090;2022-10-13T02:54:07;39.10;;;25.38;;
71202;SDS011;58929;47.490;19.090;2022-10-13T02:56:35;35.47;;;23.13;;
71202;SDS011;58929;47.490;19.090;2022-10-13T02:59:03;41.70;;;24.05;;
71202;SDS011;58929;47.490;19.090;2022-10-13T03:01:31;43.50;;;24.55;;
71202;SDS011;58929;47.490;19.090;2022-10-13T03:03:59;44.78;;;26.02;;
71202;SDS011;58929;47.490;19.090;2022-10-13T03:06:27;33.85;;;23.67;;
71202;SDS011;58929;47.490;19.090;2022-10-13T03:08:55;37.20;;;24.00;;
71202;SDS011;58929;47.490;19.090;2022-10-13T03:11:24;50.92;;;24.92;;
71202;SDS011;58929;47.490;19.090;2022-10-13T03:13:52;38.90;;;25.75;;
71202;SDS011;58929;47.490;19.090;2022-10-13T03:16:20;32.58;;;23.70;;
71202;SDS011;58929;47.490;19.090;2022-10-13T03:18:48;30.05;;;22.85;;
71202;SDS011;58929;47.490;19.090;2022-10-13T03:21:15;38.40;;;24.42;;
71202;SDS011;58929;47.490;19.090;2022-10-13T03:23:43;37.63;;;24.13;;
71202;SDS011;58929;47.490;19.090;2022-10-13T03:26:11;35.80;;;24.80;;
71202;SDS011;58929;47.490;19.090;2022-10-13T03:28:40;40.78;;;23.63;;
71202;SDS011;58929;47.490;19.090;2022-10-13T03:31:09;33.22;;;22.92;;
71202;SDS011;58929;47.490;19.090;2022-10-13T03:33:38;38.97;;;24.20;;
71202;SDS011;58929;47.490;19.090;2022-10-13T03:36:06;39.95;;;24.48;;
71202;SDS011;58929;47.490;19.090;2022-10-13T03:38:34;35.35;;;22.88;;
71202;SDS011;58929;47.490;19.090;2022-10-13T03:41:03;40.42;;;25.55;;
71202;SDS011;58929;47.490;19.090;2022-10-13T03:43:31;35.97;;;24.33;;
71202;SDS011;58929;47.490;19.090;2022-10-13T03:46:02;35.30;;;25.10;;
71202;SDS011;58929;47.490;19.090;2022-10-13T03:48:31;35.60;;;25.08;;
71202;SDS011;58929;47.490;19.090;2022-10-13T03:50:59;39.97;;;25.30;;
71202;SDS011;58929;47.490;19.090;2022-10-13T03:53:30;35.45;;;25.23;;
71202;SDS011;58929;47.490;19.090;2022-10-13T03:55:58;33.75;;;25.08;;
71202;SDS011;58929;47.490;19.090;2022-10-13T03:58:30;32.05;;;24.05;;
71202;SDS011;58929;47.490;19.090;2022-10-13T04:01:02;41.88;;;25.50;;
71202;SDS011;58929;47.490;19.090;2022-10-13T04:03:30;34.85;;;23.25;;
71202;SDS011;58929;47.490;19.090;2022-10-13T04:06:01;30.80;;;23.25;;
71202;SDS011;58929;47.490;19.090;2022-10-13T04:08:29;39.13;;;24.63;;
71202;SDS011;58929;47.490;19.090;2022-10-13T04:10:58;42.28;;;24.10;;
71202;SDS011;58929;47.490;19.090;2022-10-13T04:13:26;45.83;;;25.40;;
71202;SDS011;58929;47.490;19.090;2022-10-13T04:15:54;36.90;;;24.23;;
71202;SDS011;58929;47.490;19.090;2022-10-13T04:18:23;36.88;;;24.73;;
71202;SDS011;58929;47.490;19.090;2022-10-13T04:20:51;57.33;;;34.03;;
71202;SDS011;58929;47.490;19.090;2022-10-13T04:23:19;57.33;;;36.30;;
71202;SDS011;58929;47.490;19.090;2022-10-13T04:25:46;44.95;;;27.17;;
71202;SDS011;58929;47.490;19.090;2022-10-13T04:28:14;35.92;;;24.75;;
71202;SDS011;58929;47.490;19.090;2022-10-13T04:30:43;37.88;;;26.25;;
71202;SDS011;58929;47.490;19.090;2022-10-13T04:33:15;42.35;;;26.33;;
71202;SDS011;58929;47.490;19.090;2022-10-13T04:35:44;37.08;;;25.27;;
71202;SDS011;58929;47.490;19.090;2022-10-13T04:38:12;35.20;;;25.70;;
71202;SDS011;58929;47.490;19.090;2022-10-13T04:40:41;39.50;;;24.98;;
71202;SDS011;58929;47.490;19.090;2022-10-13T04:43:09;34.90;;;25.52;;
71202;SDS011;58929;47.490;19.090;2022-10-13T04:45:37;35.38;;;24.63;;
71202;SDS011;58929;47.490;19.090;2022-10-13T04:48:05;36.85;;;24.13;;
71202;SDS011;58929;47.490;19.090;2022-10-13T04:50:35;36.67;;;25.02;;
71202;SDS011;58929;47.490;19.090;2022-10-13T04:53:04;40.10;;;25.42;;
71202;SDS011;58929;47.490;19.090;2022-10-13T04:55:34;33.88;;;24.77;;
71202;SDS011;58929;47.490;19.090;2022-10-13T04:58:02;42.75;;;24.83;;
71202;SDS011;58929;47.490;19.090;2022-10-13T05:00:30;37.65;;;25.00;;
71202;SDS011;58929;47.490;19.090;2022-10-13T05:02:58;38.80;;;24.85;;
71202;SDS011;58929;47.490;19.090;2022-10-13T05:05:26;43.22;;;25.77;;
71202;SDS011;58929;47.490;19.090;2022-10-13T05:07:54;43.65;;;25.13;;
71202;SDS011;58929;47.490;19.090;2022-10-13T05:10:23;47.22;;;24.88;;
71202;SDS011;58929;47.490;19.090;2022-10-13T05:12:51;36.42;;;25.13;;
71202;SDS011;58929;47.490;19.090;2022-10-13T05:15:21;33.20;;;24.60;;
71202;SDS011;58929;47.490;19.090;2022-10-13T05:17:49;48.90;;;31.17;;
71202;SDS011;58929;47.490;19.090;2022-10-13T05:20:17;45.25;;;29.05;;
71202;SDS011;58929;47.490;19.090;2022-10-13T05:22:45;49.15;;;26.15;;
71202;SDS011;58929;47.490;19.090;2022-10-13T05:25:13;45.63;;;24.23;;
71202;SDS011;58929;47.490;19.090;2022-10-13T05:27:42;44.85;;;25.23;;
71202;SDS011;58929;47.490;19.090;2022-10-13T05:30:12;43.00;;;25.83;;
71202;SDS011;58929;47.490;19.090;2022-10-13T05:32:39;44.45;;;26.67;;
71202;SDS011;58929;47.490;19.090;2022-10-13T05:35:08;55.40;;;25.67;;
71202;SDS011;58929;47.490;19.090;2022-10-13T05:37:38;42.60;;;25.02;;
71202;SDS011;58929;47.490;19.090;2022-10-13T05:40:07;48.47;;;25.02;;
71202;SDS011;58929;47.490;19.090;2022-10-13T05:42:35;46.00;;;26.05;;
71202;SDS011;58929;47.490;19.090;2022-10-13T05:45:05;45.90;;;26.55;;
71202;SDS011;58929;47.490;19.090;2022-10-13T05:47:34;40.50;;;25.27;;
71202;SDS011;58929;47.490;19.090;2022-10-13T05:50:04;40.08;;;25.63;;
71202;SDS011;58929;47.490;19.090;2022-10-13T05:52:41;41.90;;;26.02;;
71202;SDS011;58929;47.490;19.090;2022-10-13T05:55:12;42.67;;;26.00;;
71202;SDS011;58929;47.490;19.090;2022-10-13T05:57:46;43.95;;;27.35;;
71202;SDS011;58929;47.490;19.090;2022-10-13T06:00:19;42.55;;;27.10;;
71202;SDS011;58929;47.490;19.090;2022-10-13T06:02:48;37.00;;;25.38;;
71202;SDS011;58929;47.490;19.090;2022-10-13T06:05:17;41.83;;;25.80;;
71202;SDS011;58929;47.490;19.090;2022-10-13T06:07:51;48.45;;;29.35;;
71202;SDS011;58929;47.490;19.090;2022-10-13T06:10:19;46.15;;;27.15;;
71202;SDS011;58929;47.490;19.090;2022-10-13T06:12:48;36.33;;;25.02;;
71202;SDS011;58929;47.490;19.090;2022-10-13T06:15:16;31.98;;;22.92;;
71202;SDS011;58929;47.490;19.090;2022-10-13T06:17:45;39.47;;;24.08;;
71202;SDS011;58929;47.490;19.090;2022-10-13T06:20:13;38.45;;;25.05;;
71202;SDS011;58929;47.490;19.090;2022-10-13T06:22:41;36.03;;;25.40;;
71202;SDS011;58929;47.490;19.090;2022-10-13T06:25:09;50.10;;;24.90;;
71202;SDS011;58929;47.490;19.090;2022-10-13T06:27:37;35.33;;;23.00;;
71202;SDS011;58929;47.490;19.090;2022-10-13T06:30:05;38.22;;;23.98;;
71202;SDS011;58929;47.490;19.090;2022-10-13T06:32:35;36.20;;;22.25;;
71202;SDS011;58929;47.490;19.090;2022-10-13T06:35:05;35.20;;;21.50;;
71202;SDS011;58929;47.490;19.090;2022-10-13T06:37:33;36.47;;;24.27;;
71202;SDS011;58929;47.490;19.090;2022-10-13T06:40:02;36.13;;;23.63;;
71202;SDS011;58929;47.490;19.090;2022-10-13T06:42:31;33.90;;;23.27;;
71202;SDS011;58929;47.490;19.090;2022-10-13T06:45:07;34.92;;;24.95;;
71202;SDS011;58929;47.490;19.090;2022-10-13T06:47:39;32.63;;;23.73;;
71202;SDS011;58929;47.490;19.090;2022-10-13T06:50:09;34.53;;;24.10;;
71202;SDS011;58929;47.490;19.090;2022-10-13T06:52:36;32.63;;;23.02;;
71202;SDS011;58929;47.490;19.090;2022-10-13T06:55:05;38.42;;;25.00;;
71202;SDS011;58929;47.490;19.090;2022-10-13T06:57:33;28.83;;;23.70;;
71202;SDS011;58929;47.490;19.090;2022-10-13T07:00:04;35.53;;;25.10;;
71202;SDS011;58929;47.490;19.090;2022-10-13T07:02:33;28.05;;;23.17;;
71202;SDS011;58929;47.490;19.090;2022-10-13T07:05:01;30.92;;;23.40;;
71202;SDS011;58929;47.490;19.090;2022-10-13T07:07:31;32.63;;;23.17;;
71202;SDS011;58929;47.490;19.090;2022-10-13T07:09:59;34.75;;;22.08;;
71202;SDS011;58929;47.490;19.090;2022-10-13T07:12:27;47.33;;;24.33;;
71202;SDS011;58929;47.490;19.090;2022-10-13T07:14:55;39.80;;;24.50;;
71202;SDS011;58929;47.490;19.090;2022-10-13T07:17:23;34.28;;;24.92;;
71202;SDS011;58929;47.490;19.090;2022-10-13T07:19:52;35.47;;;23.60;;
71202;SDS011;58929;47.490;19.090;2022-10-13T07:22:23;35.67;;;22.38;;
71202;SDS011;58929;47.490;19.090;2022-10-13T07:24:53;33.53;;;21.73;;
71202;SDS011;58929;47.490;19.090;2022-10-13T07:27:22;38.72;;;21.77;;
71202;SDS011;58929;47.490;19.090;2022-10-13T07:29:51;31.20;;;21.08;;
71202;SDS011;58929;47.490;19.090;2022-10-13T07:32:19;31.65;;;20.85;;
71202;SDS011;58929;47.490;19.090;2022-10-13T07:34:50;39.70;;;21.48;;
71202;SDS011;58929;47.490;19.090;2022-10-13T07:37:18;40.35;;;23.15;;
71202;SDS011;58929;47.490;19.090;2022-10-13T07:39:47;33.03;;;22.50;;
71202;SDS011;58929;47.490;19.090;2022-10-13T07:42:16;27.75;;;20.77;;
71202;SDS011;58929;47.490;19.090;2022-10-13T07:44:45;33.55;;;20.30;;
71202;SDS011;58929;47.490;19.090;2022-10-13T07:47:12;30.27;;;19.95;;
71202;SDS011;58929;47.490;19.090;2022-10-13T07:49:41;33.60;;;19.67;;
71202;SDS011;58929;47.490;19.090;2022-10-13T07:52:09;36.42;;;19.05;;
71202;SDS011;58929;47.490;19.090;2022-10-13T07:54:37;27.23;;;19.38;;
71202;SDS011;58929;47.490;19.090;2022-10-13T07:57:05;27.02;;;17.95;;
71202;SDS011;58929;47.490;19.090;2022-10-13T07:59:34;25.48;;;17.55;;
71202;SDS011;58929;47.490;19.090;2022-10-13T08:02:02;29.98;;;20.13;;
71202;SDS011;58929;47.490;19.090;2022-10-13T08:04:30;30.23;;;19.75;;
71202;SDS011;58929;47.490;19.090;2022-10-13T08:06:59;39.13;;;19.50;;
71202;SDS011;58929;47.490;19.090;2022-10-13T08:09:27;33.75;;;18.20;;
71202;SDS011;58929;47.490;19.090;2022-10-13T08:11:56;29.42;;;18.15;;
71202;SDS011;58929;47.490;19.090;2022-10-13T08:14:27;33.33;;;17.60;;
71202;SDS011;58929;47.490;19.090;2022-10-13T08:16:57;26.73;;;16.65;;
71202;SDS011;58929;47.490;19.090;2022-10-13T08:19:25;29.35;;;16.75;;
71202;SDS011;58929;47.490;19.090;2022-10-13T08:21:54;38.75;;;17.70;;
71202;SDS011;58929;47.490;19.090;2022-10-13T08:24:25;22.42;;;16.38;;
71202;SDS011;58929;47.490;19.090;2022-10-13T08:26:54;29.63;;;16.63;;
71202;SDS011;58929;47.490;19.090;2022-10-13T08:29:21;29.65;;;17.55;;
71202;SDS011;58929;47.490;19.090;2022-10-13T08:31:50;29.83;;;15.27;;
71202;SDS011;58929;47.490;19.090;2022-10-13T08:34:20;26.42;;;16.13;;
71202;SDS011;58929;47.490;19.090;2022-10-13T08:36:50;29.60;;;19.05;;
71202;SDS011;58929;47.490;19.090;2022-10-13T08:39:21;24.20;;;15.70;;
71202;SDS011;58929;47.490;19.090;2022-10-13T08:41:50;37.55;;;17.30;;
71202;SDS011;58929;47.490;19.090;2022-10-13T08:44:20;31.17;;;17.42;;
71202;SDS011;58929;47.490;19.090;2022-10-13T08:47:10;33.72;;;16.17;;
71202;SDS011;58929;47.490;19.090;2022-10-13T08:49:43;25.52;;;13.77;;
71202;SDS011;58929;47.490;19.090;2022-10-13T08:52:12;24.48;;;12.77;;
71202;SDS011;58929;47.490;19.090;2022-10-13T08:54:44;24.45;;;14.07;;
71202;SDS011;58929;47.490;19.090;2022-10-13T08:57:12;20.38;;;12.68;;
71202;SDS011;58929;47.490;19.090;2022-10-13T08:59:40;18.35;;;13.05;;
71202;SDS011;58929;47.490;19.090;2022-10-13T09:02:09;15.07;;;9.55;;
71202;SDS011;58929;47.490;19.090;2022-10-13T09:04:39;24.58;;;8.38;;
71202;SDS011;58929;47.490;19.090;2022-10-13T09:07:11;13.43;;;7.25;;
71202;SDS011;58929;47.490;19.090;2022-10-13T09:09:40;22.02;;;8.63;;
71202;SDS011;58929;47.490;19.090;2022-10-13T09:12:09;18.52;;;9.45;;
71202;SDS011;58929;47.490;19.090;2022-10-13T09:14:37;26.27;;;10.82;;
71202;SDS011;58929;47.490;19.090;2022-10-13T09:17:14;22.60;;;10.07;;
71202;SDS011;58929;47.490;19.090;2022-10-13T09:19:43;23.60;;;10.35;;
71202;SDS011;58929;47.490;19.090;2022-10-13T09:22:20;16.05;;;8.45;;
71202;SDS011;58929;47.490;19.090;2022-10-13T09:25:00;12.95;;;8.18;;
71202;SDS011;58929;47.490;19.090;2022-10-13T09:27:32;18.00;;;8.98;;
71202;SDS011;58929;47.490;19.090;2022-10-13T09:30:18;20.45;;;9.50;;
71202;SDS011;58929;47.490;19.090;2022-10-13T09:32:53;22.63;;;9.50;;
71202;SDS011;58929;47.490;19.090;2022-10-13T09:35:22;22.45;;;10.48;;
71202;SDS011;58929;47.490;19.090;2022-10-13T09:38:01;18.45;;;10.25;;
71202;SDS011;58929;47.490;19.090;2022-10-13T09:40:29;17.30;;;9.93;;
71202;SDS011;58929;47.490;19.090;2022-10-13T09:42:58;24.63;;;10.65;;
71202;SDS011;58929;47.490;19.090;2022-10-13T09:45:27;27.20;;;10.35;;
71202;SDS011;58929;47.490;19.090;2022-10-13T09:47:57;17.92;;;9.18;;
71202;SDS011;58929;47.490;19.090;2022-10-13T09:50:25;14.40;;;8.40;;
71202;SDS011;58929;47.490;19.090;2022-10-13T09:53:08;34.20;;;10.27;;
71202;SDS011;58929;47.490;19.090;2022-10-13T09:55:39;29.92;;;11.07;;
71202;SDS011;58929;47.490;19.090;2022-10-13T09:58:09;22.42;;;10.80;;
71202;SDS011;58929;47.490;19.090;2022-10-13T10:00:39;22.42;;;10.77;;
71202;SDS011;58929;47.490;19.090;2022-10-13T10:03:09;21.25;;;10.05;;
71202;SDS011;58929;47.490;19.090;2022-10-13T10:05:42;14.65;;;9.85;;
71202;SDS011;58929;47.490;19.090;2022-10-13T10:08:12;21.77;;;9.48;;
71202;SDS011;58929;47.490;19.090;2022-10-13T10:10:44;21.80;;;10.70;;
71202;SDS011;58929;47.490;19.090;2022-10-13T10:13:17;22.95;;;10.18;;
71202;SDS011;58929;47.490;19.090;2022-10-13T10:15:48;21.98;;;10.90;;
71202;SDS011;58929;47.490;19.090;2022-10-13T10:18:18;16.50;;;8.60;;
71202;SDS011;58929;47.490;19.090;2022-10-13T10:20:53;23.92;;;9.25;;
71202;SDS011;58929;47.490;19.090;2022-10-13T10:23:26;18.67;;;8.68;;
71202;SDS011;58929;47.490;19.090;2022-10-13T10:25:58;15.82;;;7.38;;
71202;SDS011;58929;47.490;19.090;2022-10-13T10:28:34;17.05;;;8.65;;
71202;SDS011;58929;47.490;19.090;2022-10-13T10:31:05;29.33;;;8.50;;
71202;SDS011;58929;47.490;19.090;2022-10-13T10:33:39;16.05;;;8.43;;
71202;SDS011;58929;47.490;19.090;2022-10-13T10:36:12;15.68;;;8.90;;
71202;SDS011;58929;47.490;19.090;2022-10-13T10:38:46;19.70;;;9.15;;
71202;SDS011;58929;47.490;19.090;2022-10-13T10:41:24;19.42;;;8.60;;
71202;SDS011;58929;47.490;19.090;2022-10-13T10:43:53;21.23;;;7.72;;
71202;SDS011;58929;47.490;19.090;2022-10-13T10:46:22;15.25;;;8.50;;
71202;SDS011;58929;47.490;19.090;2022-10-13T10:48:51;16.52;;;8.02;;
71202;SDS011;58929;47.490;19.090;2022-10-13T10:51:21;21.55;;;8.82;;
71202;SDS011;58929;47.490;19.090;2022-10-13T10:53:52;23.80;;;12.20;;
71202;SDS011;58929;47.490;19.090;2022-10-13T10:56:24;35.75;;;12.82;;
71202;SDS011;58929;47.490;19.090;2022-10-13T10:58:59;16.25;;;8.63;;
71202;SDS011;58929;47.490;19.090;2022-10-13T11:01:31;19.90;;;9.43;;
71202;SDS011;58929;47.490;19.090;2022-10-13T11:04:06;15.50;;;8.20;;
71202;SDS011;58929;47.490;19.090;2022-10-13T11:06:43;15.60;;;8.05;;
71202;SDS011;58929;47.490;19.090;2022-10-13T11:09:11;23.33;;;10.98;;
71202;SDS011;58929;47.490;19.090;2022-10-13T11:11:40;17.38;;;10.13;;
71202;SDS011;58929;47.490;19.090;2022-10-13T11:19:47;18.83;;;8.25;;
71202;SDS011;58929;47.490;19.090;2022-10-13T11:22:16;23.90;;;9.38;;
71202;SDS011;58929;47.490;19.090;2022-10-13T11:24:46;15.65;;;9.60;;
71202;SDS011;58929;47.490;19.090;2022-10-13T11:27:22;18.92;;;9.75;;
71202;SDS011;58929;47.490;19.090;2022-10-13T11:29:52;16.80;;;8.68;;
71202;SDS011;58929;47.490;19.090;2022-10-13T11:32:40;15.57;;;9.80;;
71202;SDS011;58929;47.490;19.090;2022-10-13T11:35:17;17.42;;;9.98;;
71202;SDS011;58929;47.490;19.090;2022-10-13T11:37:48;13.60;;;7.80;;
71202;SDS011;58929;47.490;19.090;2022-10-13T11:40:32;17.95;;;8.98;;
71202;SDS011;58929;47.490;19.090;2022-10-13T11:45:52;12.75;;;8.82;;
71202;SDS011;58929;47.490;19.090;2022-10-13T11:51:10;19.25;;;9.90;;
71202;SDS011;58929;47.490;19.090;2022-10-13T11:53:43;14.57;;;9.80;;
71202;SDS011;58929;47.490;19.090;2022-10-13T11:56:17;18.30;;;9.57;;
71202;SDS011;58929;47.490;19.090;2022-10-13T11:58:46;17.98;;;9.43;;
71202;SDS011;58929;47.490;19.090;2022-10-13T12:01:15;19.00;;;9.68;;
71202;SDS011;58929;47.490;19.090;2022-10-13T12:03:45;15.38;;;10.88;;
71202;SDS011;58929;47.490;19.090;2022-10-13T12:06:20;17.40;;;10.50;;
71202;SDS011;58929;47.490;19.090;2022-10-13T12:08:50;14.00;;;9.43;;
71202;SDS011;58929;47.490;19.090;2022-10-13T12:11:23;23.60;;;11.95;;
71202;SDS011;58929;47.490;19.090;2022-10-13T12:13:51;22.45;;;11.98;;
71202;SDS011;58929;47.490;19.090;2022-10-13T12:16:21;19.42;;;12.45;;
71202;SDS011;58929;47.490;19.090;2022-10-13T12:18:49;20.30;;;11.40;;
71202;SDS011;58929;47.490;19.090;2022-10-13T12:21:18;16.90;;;9.82;;
71202;SDS011;58929;47.490;19.090;2022-10-13T12:23:46;26.50;;;14.57;;
71202;SDS011;58929;47.490;19.090;2022-10-13T12:26:15;23.95;;;12.30;;
71202;SDS011;58929;47.490;19.090;2022-10-13T12:28:45;21.13;;;10.50;;
71202;SDS011;58929;47.490;19.090;2022-10-13T12:31:17;24.63;;;11.38;;
71202;SDS011;58929;47.490;19.090;2022-10-13T12:33:52;19.25;;;10.93;;
71202;SDS011;58929;47.490;19.090;2022-10-13T12:36:20;12.10;;;9.27;;
71202;SDS011;58929;47.490;19.090;2022-10-13T12:38:50;17.85;;;8.27;;
71202;SDS011;58929;47.490;19.090;2022-10-13T12:41:22;14.27;;;8.25;;
71202;SDS011;58929;47.490;19.090;2022-10-13T12:43:51;12.07;;;7.97;;
71202;SDS011;58929;47.490;19.090;2022-10-13T12:46:35;11.98;;;7.88;;
71202;SDS011;58929;47.490;19.090;2022-10-13T12:49:05;19.58;;;8.45;;
71202;SDS011;58929;47.490;19.090;2022-10-13T12:51:34;12.13;;;7.75;;
71202;SDS011;58929;47.490;19.090;2022-10-13T12:54:07;15.60;;;9.30;;
71202;SDS011;58929;47.490;19.090;2022-10-13T12:56:35;13.93;;;8.00;;
71202;SDS011;58929;47.490;19.090;2022-10-13T12:59:03;16.95;;;8.40;;
71202;SDS011;58929;47.490;19.090;2022-10-13T13:01:31;11.10;;;7.70;;
71202;SDS011;58929;47.490;19.090;2022-10-13T13:04:01;17.58;;;9.65;;
71202;SDS011;58929;47.490;19.090;2022-10-13T13:06:31;14.77;;;9.07;;
71202;SDS011;58929;47.490;19.090;2022-10-13T13:09:07;16.00;;;8.32;;
71202;SDS011;58929;47.490;19.090;2022-10-13T13:11:36;14.55;;;7.97;;
71202;SDS011;58929;47.490;19.090;2022-10-13T13:14:29;13.52;;;8.13;;
71202;SDS011;58929;47.490;19.090;2022-10-13T13:17:06;21.88;;;14.18;;
71202;SDS011;58929;47.490;19.090;2022-10-13T13:19:35;17.55;;;11.23;;
71202;SDS011;58929;47.490;19.090;2022-10-13T13:22:05;15.20;;;9.25;;
71202;SDS011;58929;47.490;19.090;2022-10-13T13:24:33;15.90;;;9.73;;
71202;SDS011;58929;47.490;19.090;2022-10-13T13:27:18;18.45;;;8.57;;
71202;SDS011;58929;47.490;19.090;2022-10-13T13:29:47;19.35;;;9.95;;
71202;SDS011;58929;47.490;19.090;2022-10-13T13:32:17;25.83;;;10.48;;
71202;SDS011;58929;47.490;19.090;2022-10-13T13:34:46;24.80;;;11.00;;
71202;SDS011;58929;47.490;19.090;2022-10-13T13:37:29;21.85;;;9.90;;
71202;SDS011;58929;47.490;19.090;2022-10-13T13:39:58;12.80;;;7.85;;
71202;SDS011;58929;47.490;19.090;2022-10-13T13:42:26;11.95;;;7.97;;
71202;SDS011;58929;47.490;19.090;2022-10-13T13:44:54;21.10;;;9.27;;
71202;SDS011;58929;47.490;19.090;2022-10-13T13:47:23;21.85;;;8.95;;
71202;SDS011;58929;47.490;19.090;2022-10-13T13:49:52;14.63;;;9.95;;
71202;SDS011;58929;47.490;19.090;2022-10-13T13:52:20;20.60;;;8.93;;
71202;SDS011;58929;47.490;19.090;2022-10-13T13:54:50;26.08;;;9.45;;
71202;SDS011;58929;47.490;19.090;2022-10-13T13:57:18;20.83;;;9.15;;
71202;SDS011;58929;47.490;19.090;2022-10-13T13:59:46;14.80;;;8.40;;
71202;SDS011;58929;47.490;19.090;2022-10-13T14:02:16;18.83;;;9.60;;
71202;SDS011;58929;47.490;19.090;2022-10-13T14:04:44;11.88;;;9.05;;
71202;SDS011;58929;47.490;19.090;2022-10-13T14:07:12;14.82;;;9.32;;
71202;SDS011;58929;47.490;19.090;2022-10-13T14:09:40;12.63;;;8.02;;
71202;SDS011;58929;47.490;19.090;2022-10-13T14:12:10;19.25;;;10.25;;
71202;SDS011;58929;47.490;19.090;2022-10-13T14:14:38;18.92;;;10.50;;
71202;SDS011;58929;47.490;19.090;2022-10-13T14:17:08;18.42;;;9.75;;
71202;SDS011;58929;47.490;19.090;2022-10-13T14:19:35;14.35;;;10.15;;
71202;SDS011;58929;47.490;19.090;2022-10-13T14:22:03;19.85;;;10.40;;
71202;SDS011;58929;47.490;19.090;2022-10-13T14:24:35;15.50;;;10.20;;
71202;SDS011;58929;47.490;19.090;2022-10-13T14:27:03;16.40;;;8.48;;
71202;SDS011;58929;47.490;19.090;2022-10-13T14:29:32;20.05;;;13.10;;
71202;SDS011;58929;47.490;19.090;2022-10-13T14:32:00;11.80;;;9.20;;
71202;SDS011;58929;47.490;19.090;2022-10-13T14:34:28;16.85;;;9.20;;
71202;SDS011;58929;47.490;19.090;2022-10-13T14:36:56;14.50;;;8.85;;
71202;SDS011;58929;47.490;19.090;2022-10-13T14:39:24;14.23;;;8.07;;
71202;SDS011;58929;47.490;19.090;2022-10-13T14:41:53;16.38;;;10.35;;